Time;durP1;ratioP1;P1;durP2;ratioP2;P2;SDS_P1;SDS_P2;PMS_P1;PMS_P2;Temp;Humidity;BMP_temperature;BMP_pressure;BME280_temperature;BME280_humidity;BME280_pressure;Samples;Min_cycle;Max_cycle;Signal;HPM_P1;HPM_P2
2022/03/09 00:00:17;;;;;;;43.83;21.52;;;;;;;-144.65;100.00;64500.88;5092049;28;20024;-73
2022/03/09 00:02:42;;;;;;;45.03;22.92;;;;;;;-144.65;100.00;64500.88;5111257;28;20504;-74
2022/03/09 00:05:08;;;;;;;43.92;22.60;;;;;;;-144.65;100.00;64500.88;5088204;28;20051;-73
2022/03/09 00:07:34;;;;;;;42.75;20.38;;;;;;;-144.65;100.00;64500.88;5091358;28;20112;-75
2022/03/09 00:10:00;;;;;;;42.88;19.77;;;;;;;-144.65;100.00;64500.88;5086213;28;20082;-73
2022/03/09 00:12:25;;;;;;;46.08;21.20;;;;;;;-144.65;100.00;64500.88;5089538;28;20029;-73
2022/03/09 00:14:51;;;;;;;41.72;18.17;;;;;;;-144.65;100.00;64500.88;5085414;28;20389;-73
2022/03/09 00:17:16;;;;;;;51.20;21.17;;;;;;;-144.65;100.00;64500.88;5086395;28;20074;-74
2022/03/09 00:19:42;;;;;;;44.60;17.17;;;;;;;-144.65;100.00;64500.88;5086417;28;20016;-73
2022/03/09 00:22:07;;;;;;;46.40;17.05;;;;;;;-144.65;100.00;64500.88;5084911;28;20035;-73
2022/03/09 00:24:33;;;;;;;48.58;19.42;;;;;;;-144.65;100.00;64500.88;5085412;28;20023;-74
2022/03/09 00:26:59;;;;;;;48.35;18.73;;;;;;;-144.65;100.00;64500.88;5087625;28;20023;-74
2022/03/09 00:29:26;;;;;;;42.65;17.48;;;;;;;-144.65;100.00;64500.88;5086642;28;20048;-74
2022/03/09 00:31:52;;;;;;;38.85;18.70;;;;;;;-144.65;100.00;64500.88;5085069;28;20059;-74
2022/03/09 00:34:21;;;;;;;37.25;17.95;;;;;;;-144.65;100.00;64500.88;5084360;28;20012;-74
2022/03/09 00:36:46;;;;;;;42.85;18.83;;;;;;;-144.65;100.00;64500.88;5084691;28;20035;-74
2022/03/09 00:39:12;;;;;;;46.83;19.88;;;;;;;-144.65;100.00;64500.88;5085405;28;20099;-73
2022/03/09 00:41:38;;;;;;;40.90;19.55;;;;;;;-144.65;100.00;64500.88;5071454;28;20634;-75
2022/03/09 00:44:04;;;;;;;42.38;18.55;;;;;;;-144.65;100.00;64500.88;5073235;28;20039;-73
2022/03/09 00:46:30;;;;;;;40.92;20.17;;;;;;;-144.65;100.00;64500.88;5072842;28;20042;-74
2022/03/09 00:48:55;;;;;;;60.50;21.55;;;;;;;-144.65;100.00;64500.88;5073098;28;20017;-73
2022/03/09 00:51:21;;;;;;;44.28;19.88;;;;;;;-144.65;100.00;64500.88;5073240;28;20021;-73
2022/03/09 00:53:47;;;;;;;37.53;19.23;;;;;;;-144.65;100.00;64500.88;5072594;28;20052;-73
2022/03/09 00:56:14;;;;;;;47.60;18.95;;;;;;;-144.65;100.00;64500.88;5073339;28;20045;-74
2022/03/09 00:58:40;;;;;;;49.38;18.95;;;;;;;-144.65;100.00;64500.88;5074866;28;20107;-76
2022/03/09 01:01:06;;;;;;;40.33;18.35;;;;;;;-144.65;100.00;64500.88;5075158;28;20055;-74
2022/03/09 01:03:32;;;;;;;40.70;17.27;;;;;;;-144.65;100.00;64500.88;5074008;28;20112;-75
2022/03/09 01:05:57;;;;;;;38.13;18.35;;;;;;;-144.65;100.00;64500.88;5072099;28;20436;-73
2022/03/09 01:08:23;;;;;;;40.88;16.92;;;;;;;-144.65;100.00;64500.88;5072900;28;20056;-73
2022/03/09 01:10:48;;;;;;;41.72;16.73;;;;;;;-144.65;100.00;64500.88;5072484;28;20127;-74
2022/03/09 01:13:14;;;;;;;31.70;15.10;;;;;;;-144.65;100.00;64500.88;5072841;28;20016;-74
2022/03/09 01:15:39;;;;;;;33.08;15.70;;;;;;;-144.65;100.00;64500.88;5072706;28;20098;-73
2022/03/09 01:18:05;;;;;;;35.38;14.80;;;;;;;-144.65;100.00;64500.88;5070930;28;20024;-74
2022/03/09 01:20:30;;;;;;;41.08;17.13;;;;;;;-144.65;100.00;64500.88;5072079;28;20024;-73
2022/03/09 01:22:56;;;;;;;34.33;15.43;;;;;;;-144.65;100.00;64500.88;5072444;28;20474;-73
2022/03/09 01:25:21;;;;;;;36.28;15.95;;;;;;;-144.65;100.00;64500.88;5071979;28;20024;-73
2022/03/09 01:27:47;;;;;;;35.50;16.40;;;;;;;-144.65;100.00;64500.88;5071256;28;20027;-73
2022/03/09 01:30:13;;;;;;;32.63;14.93;;;;;;;-144.65;100.00;64500.88;5072330;28;20069;-73
2022/03/09 01:32:38;;;;;;;37.05;17.23;;;;;;;-144.65;100.00;64500.88;5072194;28;20035;-74
2022/03/09 01:35:05;;;;;;;37.88;14.85;;;;;;;-144.65;100.00;64500.88;5053380;28;20032;-73
2022/03/09 01:37:30;;;;;;;34.75;15.88;;;;;;;-144.65;100.00;64500.88;5071123;28;20028;-73
2022/03/09 01:39:56;;;;;;;36.13;15.82;;;;;;;-144.65;100.00;64500.88;5071409;28;20048;-73
2022/03/09 01:42:22;;;;;;;35.58;16.55;;;;;;;-144.65;100.00;64500.88;5070195;28;20028;-73
2022/03/09 01:44:48;;;;;;;38.03;14.85;;;;;;;-144.65;100.00;64500.88;5071662;28;20067;-73
2022/03/09 01:47:14;;;;;;;32.22;15.85;;;;;;;-144.65;100.00;64500.88;5071596;28;20021;-74
2022/03/09 01:49:39;;;;;;;38.30;15.35;;;;;;;-144.65;100.00;64500.88;5071677;28;20534;-72
2022/03/09 01:52:06;;;;;;;37.00;17.48;;;;;;;-144.65;100.00;64500.88;5071375;28;20558;-73
2022/03/09 01:54:32;;;;;;;45.78;18.05;;;;;;;-144.65;100.00;64500.88;5071165;28;20048;-73
2022/03/09 01:56:59;;;;;;;43.38;17.45;;;;;;;-144.65;100.00;64500.88;5072054;28;20070;-74
2022/03/09 01:59:25;;;;;;;40.78;16.50;;;;;;;-144.65;100.00;64500.88;5071992;28;20040;-73
2022/03/09 02:01:51;;;;;;;42.72;16.95;;;;;;;-144.65;100.00;64500.88;5072518;28;20119;-74
2022/03/09 02:04:18;;;;;;;42.83;17.70;;;;;;;-144.65;100.00;64500.88;5071769;28;20131;-73
2022/03/09 02:06:43;;;;;;;33.42;16.40;;;;;;;-144.65;100.00;64500.88;5071545;28;20017;-73
2022/03/09 02:11:55;;;;;;;39.72;18.17;;;;;;;-144.65;100.00;64500.88;5072006;28;20043;-73
2022/03/09 02:14:44;;;;;;;38.58;18.25;;;;;;;-144.65;100.00;64500.88;5071576;28;20037;-74
2022/03/09 02:17:13;;;;;;;39.17;16.67;;;;;;;-144.65;100.00;64500.88;5071349;28;20107;-73
2022/03/09 02:19:40;;;;;;;35.42;16.58;;;;;;;-144.65;100.00;64500.88;5071253;28;20056;-74
2022/03/09 02:22:29;;;;;;;37.05;17.67;;;;;;;-144.65;100.00;64500.88;5071087;28;20440;-74
2022/03/09 02:24:55;;;;;;;45.05;17.92;;;;;;;-144.65;100.00;64500.88;5061937;28;20072;-73
2022/03/09 02:27:20;;;;;;;35.42;15.98;;;;;;;-144.65;100.00;64500.88;5071258;28;20470;-74
2022/03/09 02:29:47;;;;;;;36.95;16.30;;;;;;;-144.65;100.00;64500.88;5071126;28;20115;-73
2022/03/09 02:32:12;;;;;;;37.90;16.75;;;;;;;-144.65;100.00;64500.88;5071237;28;20019;-74
2022/03/09 02:34:38;;;;;;;33.97;16.17;;;;;;;-144.65;100.00;64500.88;5070756;28;20400;-74
2022/03/09 02:37:04;;;;;;;34.42;15.35;;;;;;;-144.65;100.00;64500.88;5070906;28;20044;-72
2022/03/09 02:39:29;;;;;;;35.13;16.20;;;;;;;-144.65;100.00;64500.88;5070871;28;20028;-74
2022/03/09 02:41:55;;;;;;;36.72;15.88;;;;;;;-144.65;100.00;64500.88;5072055;28;20067;-75
2022/03/09 02:44:20;;;;;;;39.55;16.95;;;;;;;-144.65;100.00;64500.88;5073383;28;20040;-72
2022/03/09 02:46:46;;;;;;;33.28;16.10;;;;;;;-144.65;100.00;64500.88;5089511;28;20051;-73
2022/03/09 02:49:11;;;;;;;45.35;16.60;;;;;;;-144.65;100.00;64500.88;5085298;28;20013;-73
2022/03/09 02:51:37;;;;;;;35.42;15.75;;;;;;;-144.65;100.00;64500.88;5071036;28;20086;-73
2022/03/09 02:54:02;;;;;;;35.50;16.88;;;;;;;-144.65;100.00;64500.88;5071544;28;20549;-74
2022/03/09 02:56:28;;;;;;;33.17;15.63;;;;;;;-144.65;100.00;64500.88;5071858;28;20020;-73
2022/03/09 02:58:53;;;;;;;41.88;18.23;;;;;;;-144.65;100.00;64500.88;5053344;28;20588;-73
2022/03/09 03:01:19;;;;;;;34.67;16.98;;;;;;;-144.65;100.00;64500.88;5070708;28;20090;-74
2022/03/09 03:03:44;;;;;;;41.33;18.83;;;;;;;-144.65;100.00;64500.88;5069848;28;20028;-73
2022/03/09 03:06:11;;;;;;;47.60;20.20;;;;;;;-144.65;100.00;64500.88;5071101;28;20060;-74
2022/03/09 03:08:38;;;;;;;43.25;17.60;;;;;;;-144.65;100.00;64500.88;5070566;28;20512;-74
2022/03/09 03:11:04;;;;;;;48.28;20.60;;;;;;;-144.65;100.00;64500.88;5069169;28;20551;-74
2022/03/09 03:13:30;;;;;;;55.92;19.23;;;;;;;-144.65;100.00;64500.88;5070634;28;20032;-74
2022/03/09 03:15:55;;;;;;;49.95;20.38;;;;;;;-144.65;100.00;64500.88;5068772;28;20016;-74
2022/03/09 03:18:21;;;;;;;53.28;21.40;;;;;;;-144.65;100.00;64500.88;5067982;28;20024;-73
2022/03/09 03:20:46;;;;;;;49.63;20.35;;;;;;;-144.65;100.00;64500.88;5067995;28;20024;-74
2022/03/09 03:23:12;;;;;;;44.83;21.02;;;;;;;-144.65;100.00;64500.88;5068645;28;20107;-74
2022/03/09 03:25:37;;;;;;;50.63;21.13;;;;;;;-144.65;100.00;64500.88;5069835;28;20032;-74
2022/03/09 03:28:03;;;;;;;42.00;19.80;;;;;;;-144.65;100.00;64500.88;5068896;28;20500;-74
2022/03/09 03:30:28;;;;;;;40.10;18.85;;;;;;;-144.65;100.00;64500.88;5069795;28;20119;-73
2022/03/09 03:32:54;;;;;;;36.17;16.38;;;;;;;-144.65;100.00;64500.88;5070662;28;20024;-73
2022/03/09 03:35:19;;;;;;;34.67;16.80;;;;;;;-144.65;100.00;64500.88;5069976;28;20030;-74
2022/03/09 03:37:44;;;;;;;37.22;16.42;;;;;;;-144.65;100.00;64500.88;5070020;28;20548;-74
2022/03/09 03:40:10;;;;;;;47.45;19.15;;;;;;;-144.65;100.00;64500.88;5069792;28;20469;-74
2022/03/09 03:42:36;;;;;;;46.38;19.95;;;;;;;-144.65;100.00;64500.88;5069433;28;20063;-74
2022/03/09 03:45:01;;;;;;;39.95;18.30;;;;;;;-144.65;100.00;64500.88;5069302;28;20028;-74
2022/03/09 03:47:27;;;;;;;40.58;18.75;;;;;;;-144.65;100.00;64500.88;5070270;28;20021;-74
2022/03/09 03:49:52;;;;;;;38.35;19.10;;;;;;;-144.65;100.00;64500.88;5069047;28;20078;-74
2022/03/09 03:52:19;;;;;;;36.15;16.02;;;;;;;-144.65;100.00;64500.88;5070241;28;20492;-74
2022/03/09 03:54:44;;;;;;;32.85;15.57;;;;;;;-144.65;100.00;64500.88;5068620;28;20105;-73
2022/03/09 03:57:10;;;;;;;36.58;14.90;;;;;;;-144.65;100.00;64500.88;5069916;28;20470;-74
2022/03/09 03:59:36;;;;;;;29.60;13.68;;;;;;;-144.65;100.00;64500.88;5071120;28;20029;-75
2022/03/09 04:02:01;;;;;;;37.75;15.85;;;;;;;-144.65;100.00;64500.88;5069014;28;20059;-73
2022/03/09 04:04:27;;;;;;;34.60;16.23;;;;;;;-144.65;100.00;64500.88;5069314;28;20078;-74
2022/03/09 04:06:52;;;;;;;33.75;16.02;;;;;;;-144.65;100.00;64500.88;5069378;28;20074;-73
2022/03/09 04:09:17;;;;;;;30.13;15.18;;;;;;;-144.65;100.00;64500.88;5068773;28;20490;-73
2022/03/09 04:11:43;;;;;;;36.90;17.40;;;;;;;-144.65;100.00;64500.88;5070047;28;20354;-73
2022/03/09 04:14:08;;;;;;;36.47;15.15;;;;;;;-144.65;100.00;64500.88;5069878;28;20029;-74
2022/03/09 04:16:34;;;;;;;35.63;17.05;;;;;;;-144.65;100.00;64500.88;5073370;28;20031;-73
2022/03/09 04:18:59;;;;;;;38.60;15.90;;;;;;;-144.65;100.00;64500.88;5078426;28;20103;-73
2022/03/09 04:21:25;;;;;;;32.75;15.43;;;;;;;-144.65;100.00;64500.88;5092110;28;20075;-72
2022/03/09 04:23:53;;;;;;;33.00;16.00;;;;;;;-144.65;100.00;64500.88;5080392;28;20020;-74
2022/03/09 04:26:18;;;;;;;38.05;17.25;;;;;;;-144.65;100.00;64500.88;5091080;28;20024;-73
2022/03/09 04:28:44;;;;;;;43.42;18.00;;;;;;;-144.65;100.00;64500.88;5091519;28;20473;-73
2022/03/09 04:31:09;;;;;;;36.88;17.08;;;;;;;-144.65;100.00;64500.88;5075910;28;20072;-74
2022/03/09 04:33:37;;;;;;;44.30;18.65;;;;;;;-144.65;100.00;64500.88;5109234;28;20123;-74
2022/03/09 04:36:04;;;;;;;46.13;18.50;;;;;;;-144.65;100.00;64500.88;5101065;28;20085;-75
2022/03/09 04:38:30;;;;;;;38.92;17.70;;;;;;;-144.65;100.00;64500.88;5072699;28;20119;-74
2022/03/09 04:40:55;;;;;;;40.05;17.95;;;;;;;-144.65;100.00;64500.88;5071175;28;20536;-74
2022/03/09 04:43:21;;;;;;;43.78;18.95;;;;;;;-144.65;100.00;64500.88;5072053;28;20401;-74
2022/03/09 04:45:47;;;;;;;47.03;17.60;;;;;;;-144.65;100.00;64500.88;5071113;28;20060;-74
2022/03/09 04:48:13;;;;;;;42.45;17.92;;;;;;;-144.65;100.00;64500.88;5078642;28;20115;-76
2022/03/09 04:50:38;;;;;;;49.05;18.92;;;;;;;-144.65;100.00;64500.88;5094216;28;20111;-74
2022/03/09 04:53:04;;;;;;;38.33;16.65;;;;;;;-144.65;100.00;64500.88;5109060;28;20132;-74
2022/03/09 04:55:29;;;;;;;41.90;16.33;;;;;;;-144.65;100.00;64500.88;5093139;28;20020;-74
2022/03/09 04:57:55;;;;;;;36.22;16.08;;;;;;;-144.65;100.00;64500.88;5108356;28;20069;-74
2022/03/09 05:00:20;;;;;;;32.35;15.98;;;;;;;-144.65;100.00;64500.88;5092674;28;20063;-74
2022/03/09 05:02:46;;;;;;;36.35;16.38;;;;;;;-144.65;100.00;64500.88;5093308;28;20086;-74
2022/03/09 05:05:12;;;;;;;51.53;17.55;;;;;;;-144.65;100.00;64500.88;5108346;28;20042;-74
2022/03/09 05:07:41;;;;;;;53.72;17.25;;;;;;;-144.65;100.00;64500.88;5108707;28;20488;-74
2022/03/09 05:10:16;;;;;;;47.95;17.23;;;;;;;-144.65;100.00;64500.88;5092700;28;20101;-74
2022/03/09 05:12:43;;;;;;;39.70;16.95;;;;;;;-144.65;100.00;64500.88;5111059;28;20036;-73
2022/03/09 05:15:09;;;;;;;42.63;17.65;;;;;;;-144.65;100.00;64500.88;5107844;28;20031;-77
2022/03/09 05:17:42;;;;;;;44.08;18.88;;;;;;;-144.65;100.00;64500.88;5082747;28;20451;-74
2022/03/09 05:20:09;;;;;;;37.47;16.88;;;;;;;-144.65;100.00;64500.88;5072031;28;20080;-74
2022/03/09 05:22:34;;;;;;;39.90;17.33;;;;;;;-144.65;100.00;64500.88;5070582;28;20564;-74
2022/03/09 05:25:00;;;;;;;39.20;17.23;;;;;;;-144.65;100.00;64500.88;5081508;28;20028;-74
2022/03/09 05:27:27;;;;;;;38.28;17.98;;;;;;;-144.65;100.00;64500.88;5090716;28;20077;-75
2022/03/09 05:29:55;;;;;;;156.95;62.97;;;;;;;-144.65;100.00;64500.88;5090702;28;20101;-72
2022/03/09 05:32:21;;;;;;;43.47;17.95;;;;;;;-144.65;100.00;64500.88;5091718;28;20024;-71
2022/03/09 05:34:49;;;;;;;56.53;19.05;;;;;;;-144.65;100.00;64500.88;5091805;28;20024;-71
2022/03/09 05:37:15;;;;;;;51.17;21.30;;;;;;;-144.65;100.00;64500.88;5090280;28;20116;-73
2022/03/09 05:39:40;;;;;;;33.50;16.02;;;;;;;-144.65;100.00;64500.88;5091921;28;20127;-76
2022/03/09 05:42:06;;;;;;;40.10;15.90;;;;;;;-144.65;100.00;64500.88;5091720;28;20063;-74
2022/03/09 05:44:32;;;;;;;40.90;16.92;;;;;;;-144.65;100.00;64500.88;5092378;28;20060;-74
2022/03/09 05:46:58;;;;;;;42.08;18.90;;;;;;;-144.65;100.00;64500.88;5093299;28;20024;-75
2022/03/09 05:49:23;;;;;;;54.97;21.45;;;;;;;-144.65;100.00;64500.88;5093079;28;20473;-74
2022/03/09 05:51:52;;;;;;;46.75;18.40;;;;;;;-144.65;100.00;64500.88;5092339;28;20047;-74
2022/03/09 05:54:18;;;;;;;35.53;15.98;;;;;;;-144.65;100.00;64500.88;5091753;28;20048;-75
2022/03/09 05:56:43;;;;;;;37.00;14.95;;;;;;;-144.65;100.00;64500.88;5091675;28;20384;-74
2022/03/09 05:59:09;;;;;;;38.08;15.02;;;;;;;-144.65;100.00;64500.88;5091699;28;20110;-74
2022/03/09 06:01:34;;;;;;;34.20;14.65;;;;;;;-144.65;100.00;64500.88;5075969;28;20465;-74
2022/03/09 06:04:02;;;;;;;39.53;14.93;;;;;;;-144.65;100.00;64500.88;5070379;28;20024;-73
2022/03/09 06:06:28;;;;;;;44.55;15.18;;;;;;;-144.65;100.00;64500.88;5070691;28;20021;-74
2022/03/09 06:08:53;;;;;;;51.03;15.77;;;;;;;-144.65;100.00;64500.88;5070917;28;20430;-73
2022/03/09 06:11:19;;;;;;;42.95;15.85;;;;;;;-144.65;100.00;64500.88;5071364;28;20027;-73
2022/03/09 06:13:45;;;;;;;31.80;14.68;;;;;;;-144.65;100.00;64500.88;5071370;28;20029;-73
2022/03/09 06:16:10;;;;;;;39.10;15.70;;;;;;;-144.65;100.00;64500.88;5072397;28;20024;-73
2022/03/09 06:18:36;;;;;;;37.65;16.98;;;;;;;-144.65;100.00;64500.88;5072219;28;20032;-74
2022/03/09 06:21:01;;;;;;;39.97;18.33;;;;;;;-144.65;100.00;64500.88;5071806;28;20040;-77
2022/03/09 06:23:26;;;;;;;31.70;15.20;;;;;;;-144.65;100.00;64500.88;5071301;28;20484;-74
2022/03/09 06:25:52;;;;;;;33.88;16.00;;;;;;;-144.65;100.00;64500.88;5069852;28;20028;-73
2022/03/09 06:28:18;;;;;;;36.47;16.08;;;;;;;-144.65;100.00;64500.88;5071000;28;20023;-72
2022/03/09 06:30:43;;;;;;;42.80;16.95;;;;;;;-144.65;100.00;64500.88;5075037;28;20036;-75
2022/03/09 06:33:09;;;;;;;38.47;17.50;;;;;;;-144.65;100.00;64500.88;5092098;28;20016;-72
2022/03/09 06:35:35;;;;;;;62.20;26.40;;;;;;;-144.65;100.00;64500.88;5089813;28;20111;-74
2022/03/09 06:38:00;;;;;;;41.45;16.33;;;;;;;-144.65;100.00;64500.88;5090688;28;20366;-74
2022/03/09 06:40:26;;;;;;;43.03;16.50;;;;;;;-144.65;100.00;64500.88;5090986;28;20017;-75
2022/03/09 06:42:51;;;;;;;35.90;15.10;;;;;;;-144.65;100.00;64500.88;5091179;28;20032;-75
2022/03/09 06:45:20;;;;;;;46.90;16.02;;;;;;;-144.65;100.00;64500.88;5091978;28;20024;-75
2022/03/09 06:47:45;;;;;;;42.33;16.92;;;;;;;-144.65;100.00;64500.88;5091348;28;20031;-74
2022/03/09 06:50:11;;;;;;;37.38;17.23;;;;;;;-144.65;100.00;64500.88;5091032;28;20024;-75
2022/03/09 06:52:37;;;;;;;37.53;16.38;;;;;;;-144.65;100.00;64500.88;5090816;28;20028;-75
2022/03/09 06:55:04;;;;;;;49.25;16.40;;;;;;;-144.65;100.00;64500.88;5091031;28;20031;-74
2022/03/09 06:57:31;;;;;;;38.78;16.95;;;;;;;-144.65;100.00;64500.88;5091117;28;20032;-74
2022/03/09 06:59:57;;;;;;;41.92;17.13;;;;;;;-144.65;100.00;64500.88;5089615;28;20110;-75
2022/03/09 07:02:22;;;;;;;42.80;16.80;;;;;;;-144.65;100.00;64500.88;5091621;28;20502;-74
2022/03/09 07:04:48;;;;;;;33.53;16.10;;;;;;;-144.65;100.00;64500.88;5091724;28;20032;-75
2022/03/09 07:07:14;;;;;;;39.08;16.00;;;;;;;-144.65;100.00;64500.88;5090813;28;20028;-75
2022/03/09 07:09:39;;;;;;;38.55;16.52;;;;;;;-144.65;100.00;64500.88;5090651;28;20545;-74
2022/03/09 07:12:05;;;;;;;38.42;16.55;;;;;;;-144.65;100.00;64500.88;5090413;28;20030;-75
2022/03/09 07:14:30;;;;;;;43.10;17.90;;;;;;;-144.65;100.00;64500.88;5089521;28;20078;-75
2022/03/09 07:16:56;;;;;;;49.67;17.85;;;;;;;-144.65;100.00;64500.88;5090819;28;20032;-75
2022/03/09 07:19:22;;;;;;;42.22;18.63;;;;;;;-144.65;100.00;64500.88;5089408;28;20028;-74
2022/03/09 07:21:48;;;;;;;41.90;19.05;;;;;;;-144.65;100.00;64500.88;5090701;28;20042;-74
2022/03/09 07:24:15;;;;;;;43.38;18.48;;;;;;;-144.65;100.00;64500.88;5090392;28;20030;-75
2022/03/09 07:26:42;;;;;;;30.58;16.63;;;;;;;-144.65;100.00;64500.88;5090796;28;20695;-74
2022/03/09 07:29:08;;;;;;;41.17;18.35;;;;;;;-144.65;100.00;64500.88;5089376;28;20028;-75
2022/03/09 07:31:35;;;;;;;48.15;19.65;;;;;;;-144.65;100.00;64500.88;5090859;28;20052;-75
2022/03/09 07:34:00;;;;;;;42.80;17.73;;;;;;;-144.65;100.00;64500.88;5090572;28;20479;-75
2022/03/09 07:36:26;;;;;;;43.88;19.17;;;;;;;-144.65;100.00;64500.88;5090384;28;20024;-75
2022/03/09 07:38:51;;;;;;;37.20;17.38;;;;;;;-144.65;100.00;64500.88;5090643;28;20051;-75
2022/03/09 07:41:17;;;;;;;44.45;17.70;;;;;;;-144.65;100.00;64500.88;5090332;28;20020;-75
2022/03/09 07:43:42;;;;;;;41.08;17.80;;;;;;;-144.65;100.00;64500.88;5090372;28;20036;-75
2022/03/09 07:46:09;;;;;;;38.85;17.00;;;;;;;-144.65;100.00;64500.88;5090688;28;20069;-75
2022/03/09 07:48:35;;;;;;;39.83;19.85;;;;;;;-144.65;100.00;64500.88;5088989;28;20016;-75
2022/03/09 07:51:00;;;;;;;44.08;23.45;;;;;;;-144.65;100.00;64500.88;5091960;28;20066;-75
2022/03/09 07:53:26;;;;;;;38.22;16.88;;;;;;;-144.65;100.00;64500.88;5094354;28;20091;-75
2022/03/09 07:55:51;;;;;;;33.95;16.80;;;;;;;-144.65;100.00;64500.88;5094674;28;20028;-75
2022/03/09 07:58:17;;;;;;;29.55;16.38;;;;;;;-144.65;100.00;64500.88;5094479;28;20027;-75
2022/03/09 08:00:42;;;;;;;30.23;15.32;;;;;;;-144.65;100.00;64500.88;5093244;28;20031;-76
2022/03/09 08:03:08;;;;;;;35.00;16.05;;;;;;;-144.65;100.00;64500.88;5094478;28;20036;-76
2022/03/09 08:05:34;;;;;;;35.60;16.27;;;;;;;-144.65;100.00;64500.88;5092494;28;20108;-76
2022/03/09 08:07:59;;;;;;;33.45;17.48;;;;;;;-144.65;100.00;64500.88;5086143;28;20017;-76
2022/03/09 08:10:25;;;;;;;31.17;17.40;;;;;;;-144.65;100.00;64500.88;5081902;28;20031;-76
2022/03/09 08:12:50;;;;;;;38.80;17.35;;;;;;;-144.65;100.00;64500.88;5078900;28;20097;-75
2022/03/09 08:15:16;;;;;;;31.10;17.23;;;;;;;-144.65;100.00;64500.88;5081623;28;20106;-73
2022/03/09 08:17:41;;;;;;;33.25;18.02;;;;;;;-144.65;100.00;64500.88;5081888;28;20103;-73
2022/03/09 08:20:08;;;;;;;31.52;17.92;;;;;;;-144.65;100.00;64500.88;5082982;28;20044;-73
2022/03/09 08:22:35;;;;;;;30.98;16.38;;;;;;;-144.65;100.00;64500.88;5083277;28;20078;-74
2022/03/09 08:25:01;;;;;;;32.65;17.65;;;;;;;-144.65;100.00;64500.88;5083328;28;20035;-73
2022/03/09 08:27:27;;;;;;;30.65;16.67;;;;;;;-144.65;100.00;64500.88;5074698;28;20032;-74
2022/03/09 08:29:52;;;;;;;33.70;16.25;;;;;;;-144.65;100.00;64500.88;5081042;28;20032;-74
2022/03/09 08:32:19;;;;;;;30.67;17.17;;;;;;;-144.65;100.00;64500.88;5082388;28;20027;-74
2022/03/09 08:34:45;;;;;;;30.33;17.65;;;;;;;-144.65;100.00;64500.88;5076383;28;20134;-75
2022/03/09 08:37:11;;;;;;;29.08;17.23;;;;;;;-144.65;100.00;64500.88;5077120;28;20044;-74
2022/03/09 08:39:36;;;;;;;28.65;16.35;;;;;;;-144.65;100.00;64500.88;5076582;28;20063;-75
2022/03/09 08:42:02;;;;;;;32.83;17.30;;;;;;;-144.65;100.00;64500.88;5076352;28;20027;-74
2022/03/09 08:44:28;;;;;;;31.25;16.55;;;;;;;-144.65;100.00;64500.88;5080407;28;20625;-74
2022/03/09 08:46:53;;;;;;;29.00;15.68;;;;;;;-144.65;100.00;64500.88;5082111;28;20035;-75
2022/03/09 08:49:19;;;;;;;30.38;15.88;;;;;;;-144.65;100.00;64500.88;5082846;28;20028;-75
2022/03/09 08:51:45;;;;;;;26.80;14.27;;;;;;;-144.65;100.00;64500.88;5086149;28;20020;-74
2022/03/09 08:54:10;;;;;;;29.25;15.50;;;;;;;-144.65;100.00;64500.88;5084584;28;20586;-74
2022/03/09 08:56:39;;;;;;;27.48;15.50;;;;;;;-144.65;100.00;64500.88;5084607;28;20070;-75
2022/03/09 08:59:04;;;;;;;32.70;15.05;;;;;;;-144.65;100.00;64500.88;5075907;28;20031;-74
2022/03/09 09:01:30;;;;;;;32.45;15.77;;;;;;;-144.65;100.00;64500.88;5079911;28;20028;-77
2022/03/09 09:03:59;;;;;;;25.52;15.52;;;;;;;-144.65;100.00;64500.88;5077406;28;20028;-74
2022/03/09 09:06:27;;;;;;;28.70;14.85;;;;;;;-144.65;100.00;64500.88;5071220;28;20020;-77
2022/03/09 09:08:53;;;;;;;26.65;14.88;;;;;;;-144.65;100.00;64500.88;5058014;28;20082;-77
2022/03/09 09:11:21;;;;;;;34.22;15.30;;;;;;;-144.65;100.00;64500.88;5084838;28;20024;-75
2022/03/09 09:13:47;;;;;;;27.60;15.45;;;;;;;-144.65;100.00;64500.88;5079182;28;20090;-76
2022/03/09 09:16:13;;;;;;;27.33;15.80;;;;;;;-144.65;100.00;64500.88;5080288;28;20024;-75
2022/03/09 09:18:38;;;;;;;23.92;14.45;;;;;;;-144.65;100.00;64500.88;5083041;28;20055;-74
2022/03/09 09:21:16;;;;;;;23.38;13.68;;;;;;;-144.65;100.00;64500.88;5076299;28;20055;-74
2022/03/09 09:23:43;;;;;;;23.40;13.50;;;;;;;-144.65;100.00;64500.88;5083998;28;20028;-74
2022/03/09 09:26:18;;;;;;;26.00;14.18;;;;;;;-144.65;100.00;64500.88;5083185;28;20502;-74
2022/03/09 09:28:44;;;;;;;30.80;14.90;;;;;;;-144.65;100.00;64500.88;5081953;28;20047;-75
2022/03/09 09:31:10;;;;;;;22.63;13.77;;;;;;;-144.65;100.00;64500.88;5089529;28;20020;-75
2022/03/09 09:33:35;;;;;;;26.35;13.90;;;;;;;-144.65;100.00;64500.88;5089303;28;20119;-77
2022/03/09 09:36:04;;;;;;;21.95;14.88;;;;;;;-144.65;100.00;64500.88;5065303;28;20105;-74
2022/03/09 09:38:30;;;;;;;34.67;13.95;;;;;;;-144.65;100.00;64500.88;5081118;28;20025;-75
2022/03/09 09:40:56;;;;;;;21.10;13.65;;;;;;;-144.65;100.00;64500.88;5078242;28;20024;-74
2022/03/09 09:43:24;;;;;;;22.38;13.50;;;;;;;-144.65;100.00;64500.88;5080460;28;20492;-76
2022/03/09 09:45:49;;;;;;;23.10;13.55;;;;;;;-144.65;100.00;64500.88;5082622;28;20016;-75
2022/03/09 09:48:15;;;;;;;24.40;13.38;;;;;;;-144.65;100.00;64500.88;5081647;28;20081;-75
2022/03/09 09:50:42;;;;;;;25.50;13.27;;;;;;;-144.65;100.00;64500.88;5082361;28;20024;-74
2022/03/09 09:53:13;;;;;;;22.13;13.43;;;;;;;-144.65;100.00;64500.88;5087132;28;20439;-77
2022/03/09 09:55:40;;;;;;;25.52;13.65;;;;;;;-144.65;100.00;64500.88;5085796;28;20041;-71
2022/03/09 09:58:07;;;;;;;19.85;12.68;;;;;;;-144.65;100.00;64500.88;5080800;28;20047;-71
2022/03/09 10:00:34;;;;;;;17.85;12.57;;;;;;;-144.65;100.00;64500.88;5080551;28;20024;-73
2022/03/09 10:02:59;;;;;;;21.33;11.70;;;;;;;-144.65;100.00;64500.88;5081143;28;20020;-74
2022/03/09 10:05:25;;;;;;;22.38;11.55;;;;;;;-144.65;100.00;64500.88;5081815;28;20021;-75
2022/03/09 10:08:06;;;;;;;19.77;10.32;;;;;;;-144.65;100.00;64500.88;5082686;28;20023;-76
2022/03/09 10:10:36;;;;;;;14.95;8.85;;;;;;;-144.65;100.00;64500.88;5079825;28;20486;-74
2022/03/09 10:13:18;;;;;;;17.75;10.05;;;;;;;-144.65;100.00;64500.88;5083748;28;20107;-74
2022/03/09 10:15:46;;;;;;;21.65;11.32;;;;;;;-144.65;100.00;64500.88;5079838;28;20032;-73
2022/03/09 10:18:22;;;;;;;18.23;10.13;;;;;;;-144.65;100.00;64500.88;5081563;28;20016;-74
2022/03/09 10:20:50;;;;;;;16.00;10.13;;;;;;;-144.65;100.00;64500.88;5080457;28;20701;-78
2022/03/09 10:23:20;;;;;;;18.73;10.82;;;;;;;-144.65;100.00;64500.88;5078629;28;20167;-74
2022/03/09 10:25:47;;;;;;;16.75;9.48;;;;;;;-144.65;100.00;64500.88;5082843;28;20132;-76
2022/03/09 10:28:13;;;;;;;18.60;9.38;;;;;;;-144.65;100.00;64500.88;5081099;28;20047;-74
2022/03/09 10:30:41;;;;;;;19.13;12.73;;;;;;;-144.65;100.00;64500.88;5081078;28;20029;-73
2022/03/09 10:33:09;;;;;;;20.23;10.25;;;;;;;-144.65;100.00;64500.88;5079518;28;20062;-76
2022/03/09 10:35:49;;;;;;;14.23;9.57;;;;;;;-144.65;100.00;64500.88;5085405;28;20059;-74
2022/03/09 10:38:14;;;;;;;17.33;10.15;;;;;;;-144.65;100.00;64500.88;5082811;28;20042;-73
2022/03/09 10:40:43;;;;;;;19.58;11.05;;;;;;;-144.65;100.00;64500.88;5078942;28;20021;-75
2022/03/09 10:43:09;;;;;;;21.50;11.43;;;;;;;-144.65;100.00;64500.88;5077678;28;20036;-75
2022/03/09 10:45:35;;;;;;;17.02;11.40;;;;;;;-144.65;100.00;64500.88;5081540;28;20058;-74
2022/03/09 10:48:00;;;;;;;19.67;11.23;;;;;;;-144.65;100.00;64500.88;5090933;28;20849;-78
2022/03/09 10:50:28;;;;;;;19.85;12.05;;;;;;;-144.65;100.00;64500.88;5078995;28;20020;-76
2022/03/09 10:52:58;;;;;;;17.60;11.52;;;;;;;-144.65;100.00;64500.88;5088569;28;20074;-75